Time;durP1;ratioP1;P1;durP2;ratioP2;P2;SDS_P1;SDS_P2;PMS_P1;PMS_P2;Temp;Humidity;BMP_temperature;BMP_pressure;BME280_temperature;BME280_humidity;BME280_pressure;Samples;Min_cycle;Max_cycle;Signal;HPM_P1;HPM_P2
2023/05/17 00:02:22;;;;;;;6.70;2.90;;;;;9.90;96451.00;;;;8223033;28;20234;-71
2023/05/17 00:06:30;;;;;;;7.38;2.75;;;;;9.80;96449.00;;;;8223287;28;20196;-72
2023/05/17 00:10:38;;;;;;;3.75;2.45;;;;;9.80;96448.00;;;;8224352;28;20235;-71
2023/05/17 00:14:41;;;;;;;8.10;2.80;;;;;9.80;96450.00;;;;8222081;28;20199;-71
2023/05/17 00:18:44;;;;;;;6.43;2.30;;;;;9.70;96446.00;;;;8222073;28;20211;-71
2023/05/17 00:22:49;;;;;;;6.45;2.72;;;;;9.70;96453.00;;;;8239717;28;20314;-69
2023/05/17 00:26:52;;;;;;;8.40;3.15;;;;;9.60;96443.00;;;;8221869;28;20887;-71
2023/05/17 00:30:57;;;;;;;7.65;2.95;;;;;9.60;96451.00;;;;8239326;28;20275;-71
2023/05/17 00:35:01;;;;;;;9.67;3.10;;;;;9.50;96442.00;;;;8221456;28;20196;-72
2023/05/17 00:39:06;;;;;;;10.77;2.95;;;;;9.50;96441.00;;;;8221980;28;20749;-71
2023/05/17 00:43:10;;;;;;;7.40;2.38;;;;;9.50;96448.00;;;;8217433;28;20323;-70
2023/05/17 00:47:13;;;;;;;8.07;2.70;;;;;9.40;96446.00;;;;8219490;28;21020;-71
2023/05/17 00:51:16;;;;;;;5.23;2.37;;;;;9.40;96459.00;;;;8223091;28;20203;-70
2023/05/17 00:55:24;;;;;;;6.97;2.47;;;;;9.40;96462.00;;;;8218273;28;20295;-71
2023/05/17 00:59:32;;;;;;;10.18;2.85;;;;;9.40;96465.00;;;;8213071;28;20989;-69
2023/05/17 01:03:37;;;;;;;6.03;2.60;;;;;9.40;96461.00;;;;8217596;28;20231;-70
2023/05/17 01:07:40;;;;;;;4.30;2.30;;;;;9.30;96467.00;;;;8218919;28;20211;-70
2023/05/17 01:11:53;;;;;;;6.37;2.10;;;;;9.30;96471.00;;;;8223840;28;20561;-71
2023/05/17 01:16:10;;;;;;;4.28;2.22;;;;;9.30;96475.00;;;;8219203;28;20195;-71
2023/05/17 01:20:21;;;;;;;8.48;2.15;;;;;9.30;96471.00;;;;8221982;28;20207;-71
2023/05/17 01:24:30;;;;;;;10.02;2.10;;;;;9.30;96480.00;;;;8220092;28;20317;-70
2023/05/17 01:28:37;;;;;;;7.57;2.23;;;;;9.30;96495.00;;;;8220912;28;20292;-72
2023/05/17 01:32:42;;;;;;;4.55;2.00;;;;;9.30;96493.00;;;;8218892;28;20208;-69
2023/05/17 01:36:46;;;;;;;6.47;2.05;;;;;9.20;96498.00;;;;8220255;28;20203;-70
2023/05/17 01:41:01;;;;;;;8.70;2.20;;;;;9.20;96504.00;;;;8218984;28;20284;-71
2023/05/17 01:45:12;;;;;;;2.80;1.95;;;;;9.10;96502.00;;;;8219933;28;20621;-68
2023/05/17 01:49:21;;;;;;;3.07;2.03;;;;;9.10;96503.00;;;;8216562;28;20279;-71
2023/05/17 01:53:30;;;;;;;7.90;2.50;;;;;9.00;96507.00;;;;8219490;28;20203;-71
2023/05/17 01:57:43;;;;;;;4.13;2.10;;;;;9.00;96505.00;;;;8218201;28;20206;-71
2023/05/17 02:01:50;;;;;;;4.80;2.03;;;;;9.00;96511.00;;;;8214345;28;20315;-70
2023/05/17 02:05:55;;;;;;;6.07;2.03;;;;;8.90;96511.00;;;;8217544;28;20192;-70
2023/05/17 02:10:00;;;;;;;4.68;1.73;;;;;8.90;96515.00;;;;8214461;28;20210;-71
2023/05/17 02:14:06;;;;;;;5.90;2.30;;;;;8.80;96518.00;;;;8218610;28;20293;-68
2023/05/17 02:18:11;;;;;;;2.70;1.98;;;;;8.80;96514.00;;;;8215558;28;20227;-69
2023/05/17 02:22:17;;;;;;;3.97;2.13;;;;;8.70;96506.00;;;;8214075;28;20200;-71
2023/05/17 02:26:25;;;;;;;4.83;2.00;;;;;8.70;96516.00;;;;8217222;28;20286;-71
2023/05/17 02:30:33;;;;;;;3.07;2.00;;;;;8.60;96511.00;;;;8215215;28;20286;-70
2023/05/17 02:34:43;;;;;;;2.50;2.27;;;;;8.60;96505.00;;;;8210401;28;20196;-71
2023/05/17 02:38:47;;;;;;;8.18;2.13;;;;;8.50;96515.00;;;;8207488;28;20254;-70
2023/05/17 02:42:52;;;;;;;4.20;1.87;;;;;8.50;96512.00;;;;8214414;28;20230;-70
2023/05/17 02:46:55;;;;;;;6.43;2.53;;;;;8.50;96514.00;;;;8224137;28;20294;-70
2023/05/17 02:51:00;;;;;;;5.47;2.10;;;;;8.40;96522.00;;;;8214884;28;20298;-70
2023/05/17 02:55:05;;;;;;;5.00;2.00;;;;;8.40;96522.00;;;;8219434;28;20261;-69
2023/05/17 02:59:10;;;;;;;4.13;2.00;;;;;8.30;96510.00;;;;8229315;28;20202;-70
2023/05/17 03:03:14;;;;;;;5.77;2.20;;;;;8.30;96520.00;;;;8270895;22;20241;-71
2023/05/17 03:07:18;;;;;;;5.23;2.23;;;;;8.20;96509.00;;;;8270668;28;20209;-68
2023/05/17 03:11:21;;;;;;;7.47;2.60;;;;;8.20;96529.00;;;;8278156;28;20947;-70
2023/05/17 03:15:25;;;;;;;3.60;1.73;;;;;8.10;96532.00;;;;8272064;28;20206;-71
2023/05/17 03:19:28;;;;;;;3.23;1.80;;;;;8.10;96542.00;;;;8273577;28;20545;-70
2023/05/17 03:23:33;;;;;;;5.73;1.90;;;;;8.00;96533.00;;;;8269033;28;20293;-69
2023/05/17 03:27:36;;;;;;;4.67;2.33;;;;;8.00;96540.00;;;;8284491;28;20230;-70
2023/05/17 03:31:43;;;;;;;6.40;1.80;;;;;7.90;96549.00;;;;8278161;28;20198;-72
2023/05/17 03:35:48;;;;;;;6.10;2.00;;;;;7.90;96553.00;;;;8289980;28;20210;-70
2023/05/17 03:39:56;;;;;;;8.73;2.10;;;;;7.90;96553.00;;;;8276458;28;20568;-68
2023/05/17 03:44:00;;;;;;;11.60;2.17;;;;;7.80;96556.00;;;;8279371;28;20293;-72
2023/05/17 03:48:05;;;;;;;7.37;2.27;;;;;7.80;96565.00;;;;8271117;28;20199;-72
2023/05/17 03:52:08;;;;;;;3.73;1.97;;;;;7.80;96568.00;;;;8277880;28;20195;-71
2023/05/17 03:56:16;;;;;;;7.33;2.27;;;;;7.80;96568.00;;;;8273885;28;20286;-72
2023/05/17 04:00:21;;;;;;;7.47;1.93;;;;;7.80;96575.00;;;;8276217;28;20214;-72
2023/05/17 04:04:26;;;;;;;7.50;2.87;;;;;7.70;96571.00;;;;8264544;28;20628;-71
2023/05/17 04:08:29;;;;;;;8.30;2.30;;;;;7.70;96580.00;;;;8255914;28;20238;-72
2023/05/17 04:12:35;;;;;;;5.97;1.90;;;;;7.80;96590.00;;;;8254844;28;20201;-71
2023/05/17 04:16:43;;;;;;;6.63;2.10;;;;;7.80;96594.00;;;;8249478;28;20199;-71
2023/05/17 04:20:52;;;;;;;6.97;2.43;;;;;7.80;96601.00;;;;8266356;28;20202;-73
2023/05/17 04:24:56;;;;;;;5.17;1.90;;;;;7.80;96602.00;;;;8267518;28;20313;-72
2023/05/17 04:29:00;;;;;;;6.23;1.80;;;;;7.80;96609.00;;;;8262032;28;20571;-72
2023/05/17 04:33:04;;;;;;;7.33;2.20;;;;;7.80;96617.00;;;;8269448;28;20203;-71
2023/05/17 04:37:09;;;;;;;5.23;2.37;;;;;7.80;96614.00;;;;8261303;28;20680;-71
2023/05/17 04:41:18;;;;;;;10.10;2.30;;;;;7.80;96625.00;;;;8262351;28;20793;-71
2023/05/17 04:45:25;;;;;;;6.77;2.10;;;;;7.80;96622.00;;;;8256802;28;21151;-72
2023/05/17 04:49:32;;;;;;;5.00;2.07;;;;;7.80;96630.00;;;;8260406;28;20239;-72
2023/05/17 04:53:36;;;;;;;4.57;2.20;;;;;7.80;96626.00;;;;8262356;28;20199;-71
2023/05/17 04:57:40;;;;;;;3.43;1.90;;;;;7.80;96632.00;;;;8264773;28;20285;-71
2023/05/17 05:01:45;;;;;;;7.13;2.07;;;;;7.80;96636.00;;;;8259061;28;20285;-72
2023/05/17 05:05:48;;;;;;;9.30;2.20;;;;;7.90;96644.00;;;;8266977;28;20269;-71
2023/05/17 05:09:53;;;;;;;5.33;2.10;;;;;7.90;96657.00;;;;8254467;28;20660;-71
2023/05/17 05:13:56;;;;;;;6.17;2.20;;;;;8.00;96661.00;;;;8270311;28;20207;-71
2023/05/17 05:18:01;;;;;;;6.47;2.10;;;;;8.10;96667.00;;;;8263770;28;20671;-72
2023/05/17 05:22:10;;;;;;;5.80;2.40;;;;;8.10;96675.00;;;;8266665;28;20195;-71
2023/05/17 05:26:14;;;;;;;5.23;2.27;;;;;8.20;96669.00;;;;8255029;28;20914;-71
2023/05/17 05:30:21;;;;;;;11.20;2.27;;;;;8.20;96676.00;;;;8259302;28;20210;-70
2023/05/17 05:34:27;;;;;;;6.13;2.27;;;;;8.30;96672.00;;;;8260861;28;20227;-71
2023/05/17 05:38:30;;;;;;;6.70;2.57;;;;;8.40;96676.00;;;;8248902;28;20201;-72
2023/05/17 05:42:33;;;;;;;4.57;2.27;;;;;8.60;96682.00;;;;8260491;28;20540;-71
2023/05/17 05:46:36;;;;;;;15.53;2.60;;;;;8.80;96687.00;;;;8265481;28;20313;-72
2023/05/17 05:50:42;;;;;;;10.17;2.00;;;;;8.90;96690.00;;;;8256714;28;20286;-70
2023/05/17 05:54:48;;;;;;;5.07;2.13;;;;;9.00;96693.00;;;;8256823;28;20633;-71
2023/05/17 05:58:53;;;;;;;8.65;2.70;;;;;9.20;96703.00;;;;8266494;28;20241;-70
2023/05/17 06:02:59;;;;;;;4.73;2.20;;;;;9.30;96708.00;;;;8261993;28;20233;-72
2023/05/17 06:07:09;;;;;;;7.30;2.77;;;;;9.40;96710.00;;;;8259240;28;20230;-73
2023/05/17 06:11:13;;;;;;;6.60;2.53;;;;;9.40;96706.00;;;;8262570;28;20199;-70
2023/05/17 06:15:16;;;;;;;9.07;2.50;;;;;9.60;96715.00;;;;8260846;28;20203;-72
2023/05/17 06:19:21;;;;;;;5.27;2.40;;;;;9.70;96712.00;;;;8256413;28;20202;-73
2023/05/17 06:23:26;;;;;;;8.63;2.60;;;;;9.80;96707.00;;;;8264574;28;20202;-70
2023/05/17 06:27:31;;;;;;;4.82;2.40;;;;;10.10;96711.00;;;;8255460;28;20363;-71
2023/05/17 06:31:35;;;;;;;8.43;3.30;;;;;10.50;96735.00;;;;8253690;28;20293;-71
2023/05/17 06:35:40;;;;;;;8.05;2.70;;;;;10.90;96725.00;;;;8261611;28;20207;-71
2023/05/17 06:40:07;;;;;;;7.25;3.05;;;;;11.30;96720.00;;;;8250610;28;20265;-73
2023/05/17 06:44:18;;;;;;;6.95;2.70;;;;;11.80;96724.00;;;;8255759;28;20219;-72
2023/05/17 06:48:21;;;;;;;10.13;2.72;;;;;12.10;96726.00;;;;8259221;28;20290;-74
2023/05/17 06:52:25;;;;;;;13.18;3.17;;;;;12.70;96729.00;;;;8251236;28;20206;-73
2023/05/17 06:56:30;;;;;;;3.58;2.60;;;;;13.20;96724.00;;;;8253098;28;20234;-73
2023/05/17 07:00:33;;;;;;;9.00;3.25;;;;;12.80;96734.00;;;;8271230;28;20882;-68
2023/05/17 07:04:36;;;;;;;7.20;3.33;;;;;12.60;96741.00;;;;8267182;28;20250;-69
2023/05/17 07:08:40;;;;;;;8.55;3.50;;;;;12.70;96744.00;;;;8275853;28;20204;-68
2023/05/17 07:12:47;;;;;;;9.02;3.60;;;;;13.00;96747.00;;;;8264118;28;20197;-68
2023/05/17 07:16:53;;;;;;;6.90;3.65;;;;;13.00;96751.00;;;;8266600;28;20248;-69
2023/05/17 07:20:56;;;;;;;7.78;3.08;;;;;13.00;96768.00;;;;8263618;28;20213;-68
2023/05/17 07:24:59;;;;;;;8.13;2.92;;;;;13.10;96763.00;;;;8267151;28;20933;-69
2023/05/17 07:29:04;;;;;;;10.77;3.50;;;;;13.00;96770.00;;;;8271557;28;20198;-68
2023/05/17 07:33:07;;;;;;;6.72;3.25;;;;;13.20;96756.00;;;;8268561;28;20205;-68
2023/05/17 07:37:11;;;;;;;6.03;3.63;;;;;13.20;96765.00;;;;8263814;28;20205;-69
2023/05/17 07:41:21;;;;;;;6.22;3.08;;;;;13.70;96778.00;;;;8261754;28;20239;-69
2023/05/17 07:45:27;;;;;;;10.18;3.53;;;;;13.90;96776.00;;;;8262747;28;20233;-69
2023/05/17 07:49:31;;;;;;;6.80;3.22;;;;;14.20;96782.00;;;;8265855;28;20198;-69
2023/05/17 07:53:37;;;;;;;5.43;3.30;;;;;14.40;96766.00;;;;8266502;28;20731;-69
2023/05/17 07:57:40;;;;;;;12.25;3.38;;;;;14.60;96770.00;;;;8271632;28;20658;-68
2023/05/17 08:01:45;;;;;;;8.63;3.33;;;;;14.20;96770.00;;;;8261257;28;20239;-68
2023/05/17 08:05:48;;;;;;;6.88;3.42;;;;;13.80;96778.00;;;;8259986;28;20269;-67
2023/05/17 08:09:56;;;;;;;8.57;3.38;;;;;13.70;96775.00;;;;8267312;28;20269;-68
2023/05/17 08:14:00;;;;;;;7.65;3.28;;;;;14.00;96773.00;;;;8257767;28;20195;-68
2023/05/17 08:18:06;;;;;;;9.93;3.70;;;;;14.30;96775.00;;;;8260777;28;20228;-68
2023/05/17 08:22:10;;;;;;;7.68;3.00;;;;;14.90;96783.00;;;;8261726;28;20206;-68
2023/05/17 08:26:14;;;;;;;7.50;3.47;;;;;15.10;96778.00;;;;8266254;28;20568;-68
2023/05/17 08:30:19;;;;;;;5.63;3.45;;;;;15.40;96786.00;;;;8259028;28;20209;-68
2023/05/17 08:34:32;;;;;;;11.20;4.28;;;;;15.20;96789.00;;;;8256068;28;20222;-68
2023/05/17 08:38:38;;;;;;;7.47;3.60;;;;;14.90;96782.00;;;;8257752;28;20229;-69
2023/05/17 08:42:42;;;;;;;9.43;3.60;;;;;15.10;96776.00;;;;8255755;28;21030;-68
2023/05/17 08:46:52;;;;;;;2.70;2.50;;;;;16.00;96776.00;;;;8258229;28;20313;-68
2023/05/17 08:50:58;;;;;;;7.15;3.53;;;;;16.90;96785.00;;;;8253463;28;20222;-68
2023/05/17 08:55:04;;;;;;;9.30;3.75;;;;;17.30;96797.00;;;;8259420;28;20211;-69
2023/05/17 08:59:12;;;;;;;7.30;3.20;;;;;17.50;96796.00;;;;8249320;28;20664;-69
2023/05/17 09:03:22;;;;;;;5.65;3.30;;;;;16.90;96805.00;;;;8247451;28;20237;-69
2023/05/17 09:07:29;;;;;;;9.10;4.07;;;;;16.00;96807.00;;;;8258933;28;20235;-68
2023/05/17 09:11:33;;;;;;;8.57;3.72;;;;;15.70;96808.00;;;;8255414;28;20229;-68
2023/05/17 09:15:38;;;;;;;10.50;4.05;;;;;15.90;96811.00;;;;8260234;28;20203;-68
2023/05/17 09:19:44;;;;;;;6.25;3.63;;;;;15.70;96806.00;;;;8254802;28;20285;-69
2023/05/17 09:23:49;;;;;;;6.93;4.05;;;;;15.50;96817.00;;;;8260729;28;20693;-69
2023/05/17 09:28:08;;;;;;;8.25;3.65;;;;;15.20;96825.00;;;;8248506;28;20215;-69
2023/05/17 09:32:15;;;;;;;6.20;3.88;;;;;15.10;96823.00;;;;8258375;28;20278;-68
2023/05/17 09:36:20;;;;;;;7.15;3.50;;;;;14.90;96826.00;;;;8256775;28;20202;-68
2023/05/17 09:40:25;;;;;;;7.13;3.75;;;;;14.80;96826.00;;;;8255322;28;20217;-69
2023/05/17 09:44:28;;;;;;;10.38;4.00;;;;;14.70;96822.00;;;;8265163;28;20198;-69
2023/05/17 09:48:31;;;;;;;7.95;4.45;;;;;14.90;96822.00;;;;8264678;28;20337;-69
2023/05/17 09:52:38;;;;;;;12.60;4.18;;;;;14.90;96822.00;;;;8251879;28;20255;-69
2023/05/17 09:56:43;;;;;;;7.80;4.00;;;;;14.80;96825.00;;;;8254151;28;20679;-70
2023/05/17 10:00:56;;;;;;;12.48;4.25;;;;;14.50;96835.00;;;;8250750;28;20202;-68
2023/05/17 10:05:06;;;;;;;10.13;4.10;;;;;14.40;96839.00;;;;8272572;28;20232;-68
2023/05/17 10:09:14;;;;;;;5.93;3.08;;;;;14.40;96839.00;;;;8252143;28;20636;-67
2023/05/17 10:13:23;;;;;;;7.18;3.45;;;;;14.70;96839.00;;;;8258312;28;20210;-67
2023/05/17 10:17:29;;;;;;;13.07;3.97;;;;;14.80;96839.00;;;;8259852;28;20657;-68
2023/05/17 10:21:34;;;;;;;8.48;4.07;;;;;14.90;96838.00;;;;8263511;28;20316;-68
2023/05/17 10:25:38;;;;;;;6.18;4.13;;;;;15.10;96827.00;;;;8256509;28;20233;-68
2023/05/17 10:29:43;;;;;;;9.65;4.05;;;;;15.50;96827.00;;;;8260308;28;20935;-67
2023/05/17 10:33:50;;;;;;;6.38;4.18;;;;;15.40;96826.00;;;;8250756;28;20209;-67
2023/05/17 10:37:54;;;;;;;7.63;3.45;;;;;15.70;96824.00;;;;8253652;28;20190;-67
2023/05/17 10:41:58;;;;;;;11.27;4.03;;;;;16.10;96817.00;;;;8259545;28;20208;-68
2023/05/17 10:46:20;;;;;;;9.30;3.90;;;;;16.40;96831.00;;;;8255870;28;20214;-68
2023/05/17 10:50:24;;;;;;;5.35;3.67;;;;;16.80;96823.00;;;;8266081;28;20199;-68
2023/05/17 10:54:35;;;;;;;10.02;3.50;;;;;16.70;96811.00;;;;8257897;28;20205;-68
2023/05/17 10:58:40;;;;;;;6.28;3.70;;;;;16.70;96807.00;;;;8248651;28;20202;-68
2023/05/17 11:02:47;;;;;;;8.57;3.78;;;;;16.80;96810.00;;;;8260565;28;20840;-68
2023/05/17 11:06:52;;;;;;;7.47;3.78;;;;;17.00;96810.00;;;;8255732;28;20214;-68
2023/05/17 11:11:10;;;;;;;11.15;4.57;;;;;17.20;96802.00;;;;8257346;28;20202;-68
2023/05/17 11:15:17;;;;;;;6.18;3.75;;;;;16.60;96800.00;;;;8250077;28;20202;-66
2023/05/17 11:19:23;;;;;;;8.55;4.15;;;;;16.50;96808.00;;;;8251138;28;20238;-66
2023/05/17 11:23:30;;;;;;;7.85;3.70;;;;;17.00;96810.00;;;;8252448;28;20699;-66
2023/05/17 11:27:37;;;;;;;9.15;4.18;;;;;17.10;96813.00;;;;8257767;28;20229;-66
2023/05/17 11:31:44;;;;;;;9.63;4.40;;;;;16.90;96810.00;;;;8261399;28;20289;-65
2023/05/17 11:35:56;;;;;;;9.98;4.15;;;;;16.70;96809.00;;;;8256442;28;20234;-65
2023/05/17 11:40:05;;;;;;;11.43;3.67;;;;;16.40;96818.00;;;;8257366;28;20704;-65
2023/05/17 11:44:09;;;;;;;6.43;3.80;;;;;16.20;96826.00;;;;8255446;28;20234;-65
2023/05/17 11:48:15;;;;;;;8.57;4.20;;;;;16.10;96825.00;;;;8272032;28;20226;-65
2023/05/17 11:52:21;;;;;;;10.57;4.28;;;;;16.10;96822.00;;;;8263804;28;20202;-66
2023/05/17 11:56:24;;;;;;;6.05;3.67;;;;;16.20;96819.00;;;;8260904;28;20206;-66
2023/05/17 12:00:44;;;;;;;7.07;3.35;;;;;16.20;96824.00;;;;8269400;28;20246;-67
2023/05/17 12:04:47;;;;;;;7.90;3.83;;;;;16.00;96823.00;;;;8261269;28;20226;-67
2023/05/17 12:08:51;;;;;;;7.13;3.85;;;;;16.00;96811.00;;;;8269858;28;20679;-66
2023/05/17 12:12:55;;;;;;;7.57;3.78;;;;;16.20;96819.00;;;;8262223;28;20207;-67
2023/05/17 12:17:01;;;;;;;9.93;3.75;;;;;16.80;96806.00;;;;8266320;28;20190;-67
2023/05/17 12:21:07;;;;;;;6.10;3.25;;;;;17.00;96816.00;;;;8260808;28;20214;-66
2023/05/17 12:25:24;;;;;;;8.55;3.92;;;;;16.80;96815.00;;;;8257882;28;20555;-67
2023/05/17 12:29:30;;;;;;;4.95;3.60;;;;;16.60;96813.00;;;;8253734;28;20289;-67
2023/05/17 12:33:38;;;;;;;11.00;3.63;;;;;16.20;96825.00;;;;8261529;28;20322;-67
2023/05/17 12:37:41;;;;;;;5.47;3.47;;;;;16.00;96821.00;;;;8259143;28;20207;-66
2023/05/17 12:41:47;;;;;;;6.40;3.60;;;;;15.80;96833.00;;;;8252737;28;20258;-66
2023/05/17 12:45:53;;;;;;;8.05;3.50;;;;;15.60;96839.00;;;;8255567;28;20256;-66
2023/05/17 12:50:02;;;;;;;10.52;3.75;;;;;15.40;96840.00;;;;8261236;28;20230;-66
2023/05/17 12:54:05;;;;;;;9.20;3.72;;;;;15.30;96841.00;;;;8271477;28;20290;-66
2023/05/17 12:58:09;;;;;;;9.65;3.47;;;;;15.30;96841.00;;;;8257461;28;20720;-67
2023/05/17 13:02:12;;;;;;;7.68;3.53;;;;;15.30;96845.00;;;;8261435;28;20240;-66
2023/05/17 13:06:15;;;;;;;6.53;3.13;;;;;15.60;96836.00;;;;8268871;28;20733;-66
2023/05/17 13:10:24;;;;;;;6.60;3.13;;;;;16.00;96845.00;;;;8263727;28;20217;-66
2023/05/17 13:14:37;;;;;;;7.35;3.50;;;;;16.00;96845.00;;;;8262329;28;20730;-66
2023/05/17 13:18:48;;;;;;;8.98;3.30;;;;;15.80;96843.00;;;;8272329;28;20202;-66
2023/05/17 13:22:54;;;;;;;7.20;3.10;;;;;15.60;96840.00;;;;8264949;28;20206;-67
2023/05/17 13:26:57;;;;;;;8.00;3.30;;;;;15.40;96840.00;;;;8260046;28;20237;-66
2023/05/17 13:31:02;;;;;;;12.43;3.72;;;;;15.20;96844.00;;;;8266239;28;20741;-66
2023/05/17 13:35:06;;;;;;;8.75;4.43;;;;;15.20;96848.00;;;;8267376;28;20203;-65
2023/05/17 13:39:14;;;;;;;7.45;3.30;;;;;15.20;96844.00;;;;8259394;28;20245;-66
2023/05/17 13:43:17;;;;;;;10.57;3.72;;;;;15.40;96845.00;;;;8255006;28;20217;-66
2023/05/17 13:47:21;;;;;;;4.68;3.47;;;;;15.40;96853.00;;;;8259512;28;20229;-66
2023/05/17 13:51:28;;;;;;;8.70;3.67;;;;;15.40;96861.00;;;;8256185;28;20206;-66
2023/05/17 13:55:33;;;;;;;8.60;3.67;;;;;15.50;96857.00;;;;8249154;28;20207;-66
2023/05/17 13:59:36;;;;;;;5.82;3.05;;;;;15.70;96867.00;;;;8257221;28;20202;-65
2023/05/17 14:03:41;;;;;;;8.00;4.70;;;;;15.70;96859.00;;;;8254937;28;20787;-66
2023/05/17 14:07:45;;;;;;;7.30;3.53;;;;;15.90;96851.00;;;;8254850;28;20288;-66
2023/05/17 14:11:52;;;;;;;8.85;3.70;;;;;16.10;96848.00;;;;8255491;28;20298;-66
2023/05/17 14:15:55;;;;;;;7.68;3.00;;;;;16.30;96846.00;;;;8254380;28;20199;-66
2023/05/17 14:20:02;;;;;;;4.82;3.17;;;;;16.70;96847.00;;;;8256899;28;20244;-66
2023/05/17 14:24:06;;;;;;;6.15;3.38;;;;;16.50;96844.00;;;;8257111;28;20233;-66
2023/05/17 14:28:13;;;;;;;6.05;3.35;;;;;16.00;96841.00;;;;8256268;28;20221;-65
2023/05/17 14:32:20;;;;;;;7.75;3.92;;;;;15.60;96856.00;;;;8259802;28;20789;-66
2023/05/17 14:36:28;;;;;;;11.43;3.63;;;;;15.40;96852.00;;;;8253320;28;20207;-66
2023/05/17 14:40:32;;;;;;;10.00;3.60;;;;;15.30;96862.00;;;;8261676;28;20314;-65
2023/05/17 14:44:38;;;;;;;8.05;3.13;;;;;15.20;96857.00;;;;8258524;28;20212;-66
2023/05/17 14:48:43;;;;;;;9.75;3.47;;;;;15.20;96862.00;;;;8258520;28;20309;-66
2023/05/17 14:52:49;;;;;;;8.73;3.67;;;;;15.20;96862.00;;;;8257029;28;20198;-65
2023/05/17 14:56:52;;;;;;;8.90;3.50;;;;;15.30;96864.00;;;;8258321;28;20710;-66
2023/05/17 15:00:58;;;;;;;9.13;3.53;;;;;15.30;96871.00;;;;8249607;28;20194;-66
2023/05/17 15:05:11;;;;;;;5.63;3.50;;;;;15.50;96871.00;;;;8263468;28;20290;-66
2023/05/17 15:09:17;;;;;;;12.05;4.88;;;;;15.60;96870.00;;;;8259136;28;20222;-66
2023/05/17 15:13:21;;;;;;;10.02;3.95;;;;;15.80;96868.00;;;;8262963;28;20203;-65
2023/05/17 15:17:25;;;;;;;12.18;4.22;;;;;16.00;96861.00;;;;8241617;28;20206;-66
2023/05/17 15:21:28;;;;;;;9.80;4.18;;;;;16.20;96867.00;;;;8259339;28;20207;-66
2023/05/17 15:25:36;;;;;;;7.55;3.30;;;;;16.20;96866.00;;;;8260305;28;20245;-65
2023/05/17 15:29:43;;;;;;;10.70;5.80;;;;;16.20;96862.00;;;;8256362;28;20234;-66
2023/05/17 15:33:52;;;;;;;12.23;3.70;;;;;16.10;96866.00;;;;8256152;28;20253;-66
2023/05/17 15:37:58;;;;;;;9.18;3.10;;;;;16.00;96852.00;;;;8257924;28;20230;-66
2023/05/17 15:42:03;;;;;;;6.07;3.30;;;;;15.90;96861.00;;;;8256547;28;20203;-67
2023/05/17 15:46:10;;;;;;;5.68;3.40;;;;;15.70;96864.00;;;;8256684;28;20302;-66
2023/05/17 15:50:13;;;;;;;8.93;3.03;;;;;15.50;96858.00;;;;8256325;28;20667;-69
2023/05/17 15:54:16;;;;;;;7.65;3.40;;;;;15.40;96866.00;;;;8273731;28;20195;-67
2023/05/17 15:58:26;;;;;;;7.45;3.65;;;;;15.20;96869.00;;;;8267464;28;20216;-66
2023/05/17 16:02:37;;;;;;;8.77;3.30;;;;;14.90;96872.00;;;;8260560;28;20241;-66
2023/05/17 16:06:41;;;;;;;6.75;3.38;;;;;14.80;96875.00;;;;8267429;28;20667;-66
2023/05/17 16:10:47;;;;;;;7.28;3.38;;;;;14.70;96866.00;;;;8265620;28;20266;-67
2023/05/17 16:14:52;;;;;;;9.40;3.72;;;;;14.80;96869.00;;;;8259267;28;20655;-66
2023/05/17 16:18:56;;;;;;;8.93;3.30;;;;;14.80;96871.00;;;;8262285;28;20292;-68
2023/05/17 16:22:59;;;;;;;6.90;3.40;;;;;14.80;96873.00;;;;8259194;28;20834;-67
2023/05/17 16:27:05;;;;;;;6.75;3.15;;;;;14.80;96879.00;;;;8254906;28;20305;-67
2023/05/17 16:31:11;;;;;;;7.50;3.72;;;;;14.80;96878.00;;;;8274721;28;20230;-69
2023/05/17 16:35:20;;;;;;;8.85;4.35;;;;;14.90;96887.00;;;;8261881;28;20199;-67
2023/05/17 16:39:30;;;;;;;6.65;3.78;;;;;14.80;96883.00;;;;8263674;28;20204;-67
2023/05/17 16:43:34;;;;;;;8.30;4.43;;;;;14.80;96889.00;;;;8258025;28;20199;-67
2023/05/17 16:47:39;;;;;;;8.75;4.10;;;;;14.60;96886.00;;;;8258875;28;20714;-67
2023/05/17 16:51:49;;;;;;;5.28;3.33;;;;;14.60;96894.00;;;;8254091;28;20225;-68
2023/05/17 16:55:52;;;;;;;7.78;3.63;;;;;14.50;96891.00;;;;8256948;28;20202;-70
2023/05/17 16:59:55;;;;;;;9.13;3.38;;;;;14.50;96896.00;;;;8258927;28;20195;-67
2023/05/17 17:04:04;;;;;;;8.45;3.88;;;;;14.50;96895.00;;;;8265802;28;20722;-68
2023/05/17 17:08:10;;;;;;;8.45;3.95;;;;;14.50;96898.00;;;;8251565;28;20215;-68
2023/05/17 17:12:19;;;;;;;6.80;3.70;;;;;14.60;96901.00;;;;8255707;28;20233;-68
2023/05/17 17:16:31;;;;;;;10.35;3.80;;;;;14.70;96894.00;;;;8264852;28;20272;-68
2023/05/17 17:20:38;;;;;;;6.75;3.25;;;;;14.60;96897.00;;;;8258146;28;20199;-68
2023/05/17 17:24:47;;;;;;;7.80;3.47;;;;;14.70;96896.00;;;;8255846;28;20203;-67
2023/05/17 17:28:51;;;;;;;9.68;3.58;;;;;14.90;96894.00;;;;8259506;28;20753;-67
2023/05/17 17:32:54;;;;;;;9.65;3.25;;;;;15.10;96895.00;;;;8263043;28;20360;-68
2023/05/17 17:36:59;;;;;;;14.02;3.50;;;;;15.20;96905.00;;;;8261092;28;20194;-68
2023/05/17 17:41:08;;;;;;;5.47;3.30;;;;;15.30;96913.00;;;;8259000;28;20233;-68
2023/05/17 17:45:11;;;;;;;4.90;3.20;;;;;15.50;96920.00;;;;8257569;28;20203;-68
2023/05/17 17:49:21;;;;;;;4.28;3.35;;;;;15.60;96919.00;;;;8259366;28;20262;-68
2023/05/17 17:53:27;;;;;;;4.75;3.42;;;;;15.50;96918.00;;;;8265709;28;20293;-68
2023/05/17 17:57:30;;;;;;;8.15;3.67;;;;;15.40;96926.00;;;;8256048;28;20257;-68
2023/05/17 18:01:36;;;;;;;6.88;3.58;;;;;15.10;96923.00;;;;8257160;28;20321;-69
2023/05/17 18:05:44;;;;;;;13.43;5.65;;;;;14.90;96929.00;;;;8256775;28;20295;-68
2023/05/17 18:09:50;;;;;;;18.30;7.35;;;;;14.70;96927.00;;;;8251661;28;20934;-68
2023/05/17 18:13:58;;;;;;;11.10;4.85;;;;;14.50;96925.00;;;;8255990;28;20891;-68
2023/05/17 18:18:01;;;;;;;11.00;4.47;;;;;14.30;96924.00;;;;8255460;28;20210;-68
2023/05/17 18:22:05;;;;;;;15.60;4.95;;;;;14.10;96930.00;;;;8257376;28;20207;-68
2023/05/17 18:26:11;;;;;;;9.15;3.63;;;;;13.80;96932.00;;;;8258124;28;20203;-68
2023/05/17 18:30:17;;;;;;;8.98;3.55;;;;;13.50;96936.00;;;;8260653;28;20245;-68
2023/05/17 18:34:20;;;;;;;9.13;3.42;;;;;13.20;96928.00;;;;8262228;28;20195;-68
2023/05/17 18:38:23;;;;;;;9.50;3.85;;;;;12.80;96929.00;;;;8254035;28;20235;-67
2023/05/17 18:42:30;;;;;;;8.27;3.35;;;;;12.50;96932.00;;;;8258493;28;20298;-68
2023/05/17 18:46:35;;;;;;;9.02;3.83;;;;;12.20;96933.00;;;;8268125;28;20194;-67
2023/05/17 18:50:39;;;;;;;6.72;3.97;;;;;11.90;96928.00;;;;8258057;28;20225;-67
2023/05/17 18:54:46;;;;;;;7.88;3.60;;;;;11.60;96933.00;;;;8266235;28;20745;-67
2023/05/17 18:58:54;;;;;;;7.18;4.18;;;;;11.30;96927.00;;;;8264671;28;20288;-67
2023/05/17 19:02:57;;;;;;;10.38;4.13;;;;;11.10;96931.00;;;;8257624;28;20237;-67
2023/05/17 19:07:02;;;;;;;10.30;5.47;;;;;10.90;96933.00;;;;8269436;28;20232;-67
2023/05/17 19:11:08;;;;;;;8.98;5.13;;;;;10.70;96936.00;;;;8260145;28;20252;-67
2023/05/17 19:15:13;;;;;;;8.88;4.38;;;;;10.60;96941.00;;;;8266688;28;20285;-68
2023/05/17 19:19:20;;;;;;;10.20;4.40;;;;;10.50;96940.00;;;;8253046;28;20238;-67
2023/05/17 19:23:27;;;;;;;9.00;4.43;;;;;10.30;96946.00;;;;8258494;28;20198;-67
2023/05/17 19:27:30;;;;;;;10.27;4.68;;;;;10.20;96954.00;;;;8262865;28;20210;-67
2023/05/17 19:31:40;;;;;;;9.25;4.90;;;;;10.00;96946.00;;;;8265872;28;20265;-67
2023/05/17 19:35:45;;;;;;;9.65;4.38;;;;;9.90;96947.00;;;;8262280;28;20213;-67
2023/05/17 19:39:48;;;;;;;13.95;5.22;;;;;9.80;96960.00;;;;8258875;28;20234;-67
2023/05/17 19:43:55;;;;;;;8.60;4.53;;;;;9.80;96960.00;;;;8257732;28;20729;-67
2023/05/17 19:48:06;;;;;;;18.63;4.83;;;;;9.80;96955.00;;;;8252595;28;20298;-67
2023/05/17 19:52:12;;;;;;;10.23;4.18;;;;;9.70;96955.00;;;;8264723;28;20236;-67
2023/05/17 19:56:15;;;;;;;9.35;4.40;;;;;9.60;96951.00;;;;8267413;28;20685;-67
2023/05/17 20:00:18;;;;;;;5.78;4.25;;;;;9.60;96949.00;;;;8270866;28;20322;-68
2023/05/17 20:04:25;;;;;;;10.65;4.00;;;;;9.70;96942.00;;;;8253339;28;20237;-68
2023/05/17 20:08:28;;;;;;;10.95;4.38;;;;;9.70;96942.00;;;;8274893;28;20203;-68
2023/05/17 20:12:31;;;;;;;11.05;4.93;;;;;9.80;96953.00;;;;8268433;28;20208;-68
2023/05/17 20:16:35;;;;;;;9.37;4.90;;;;;9.80;96956.00;;;;8259123;28;20203;-68
2023/05/17 20:20:41;;;;;;;13.15;4.97;;;;;9.80;96948.00;;;;8261617;28;20206;-68
2023/05/17 20:24:46;;;;;;;6.90;4.47;;;;;9.70;96955.00;;;;8273654;28;20243;-67
2023/05/17 20:28:51;;;;;;;12.13;4.50;;;;;9.90;96963.00;;;;8257716;28;20315;-69
2023/05/17 20:32:54;;;;;;;14.38;4.63;;;;;10.00;96968.00;;;;8262985;28;20385;-68